Latest Weather Observations for Curtin

IDW60801

Issued at 8:33 am WST Monday 21 August 2017 (issued every 30 minutes, with the page automatically refreshed every 10 minutes)

About weather observations | Map of weather stations | Latest weather observations for WA | Other Formats
Station Details ID: 003080 Name: CURTIN AERO Lat: -17.58 Lon: 123.83 Height: 77.5 m
Data from the previous 72 hours. | See also: Recent months at Curtin
Date/Time
WST
Temp
°C
App
Temp
°C
Dew
Point
°C
Rel
Hum
%
Delta-T
°C
Wind Press
QNH
hPa
Press
MSL
hPa
Rain since
9am
mm
Dir  Spd
km/h
Gust
km/h
Spd
kts
Gust
kts
21/08:30am 27.6 23.6 9.0 31 10.2 SE 20 32 11 17 1013.6 1013.3 0.0
21/08:00am 26.4 22.5 9.3 34 9.4 SSE 20 30 11 16 1013.4 1013.1 0.0
21/07:30am 24.7 20.9 9.0 37 8.5 SSE 19 26 10 14 1013.1 1012.8 0.0
21/07:00am 23.7 20.2 8.6 38 8.1 SSE 17 24 9 13 1012.9 1012.6 0.0
21/06:30am 22.6 19.4 8.3 40 7.6 SSE 15 20 8 11 1012.6 1012.3 0.0
21/06:00am 21.9 18.7 8.4 42 7.1 SSE 15 20 8 11 1012.2 1011.9 0.0
21/05:30am 22.4 19.1 8.1 40 7.5 SE 15 20 8 11 1011.8 1011.5 0.0
21/05:00am 23.6 20.3 8.1 37 8.2 ESE 15 20 8 11 1011.6 1011.3 0.0
21/04:30am 24.6 20.4 8.1 35 8.8 SSE 20 26 11 14 1010.7 1010.4 0.0
21/04:00am 24.6 20.5 8.5 36 8.7 SSE 20 28 11 15 1010.7 1010.4 0.0
21/03:30am 23.0 19.8 9.8 43 7.2 SSE 17 22 9 12 1010.8 1010.5 0.0
21/03:00am 21.5 19.2 10.3 49 6.1 SSE 13 15 7 8 1010.8 1010.5 0.0
21/02:30am 22.4 19.9 11.2 49 6.2 SSE 15 17 8 9 1010.8 1010.5 0.0
21/02:00am 22.7 20.3 12.6 53 5.8 S 17 20 9 11 1010.7 1010.4 0.0
21/01:30am 22.2 20.3 14.1 60 4.7 S 17 17 9 9 1010.8 1010.5 0.0
21/01:00am 22.3 20.8 14.2 60 4.8 S 15 17 8 9 1011.0 1010.7 0.0
21/12:30am 23.1 21.3 14.4 58 5.1 S 17 20 9 11 1011.3 1011.0 0.0
21/12:00am 23.5 21.5 13.9 55 5.6 S 17 20 9 11 1011.5 1011.2 0.0
 
Date/Time
WST
Temp
°C
App
Temp
°C
Dew
Point
°C
Rel
Hum
%
Delta-T
°C
Wind Press
QNH
hPa
Press
MSL
hPa
Rain since
9am
mm
Dir  Spd
km/h
Gust
km/h
Spd
kts
Gust
kts
20/11:30pm 23.9 22.1 13.4 51 6.1 SSW 15 15 8 8 1011.7 1011.4 0.0
20/11:00pm 24.5 23.0 13.1 49 6.6 SW 13 15 7 8 1011.7 1011.4 0.0
20/10:30pm 25.0 23.1 12.9 47 7.0 WSW 15 17 8 9 1011.7 1011.4 0.0
20/10:00pm 25.5 23.6 13.0 46 7.3 WSW 15 17 8 9 1011.8 1011.5 0.0
20/09:30pm 24.3 22.7 11.6 45 7.2 WSW 11 15 6 8 1011.8 1011.5 0.0
20/09:00pm 26.6 24.3 11.9 40 8.5 W 15 22 8 12 1011.8 1011.5 0.0
20/08:30pm 25.0 23.9 10.1 39 8.3 S 6 7 3 4 1011.5 1011.2 0.0
20/08:00pm 25.0 25.0 9.7 38 8.4 CALM 0 0 0 0 1011.5 1011.2 0.0
20/07:30pm 25.5 25.5 9.7 37 8.7 CALM 0 0 0 0 1011.4 1011.1 0.0
20/07:00pm 26.2 26.1 9.5 35 9.2 CALM 0 0 0 0 1011.2 1010.9 0.0
20/06:30pm 27.5 26.4 9.8 33 9.9 S 6 6 3 3 1010.9 1010.6 0.0
20/06:00pm 29.1 28.2 9.3 29 11.1 S 4 6 2 3 1010.7 1010.4 0.0
20/05:30pm 32.9 31.5 9.7 24 13.3 S 7 9 4 5 1010.5 1010.2 0.0
20/05:00pm 34.3 31.9 8.8 21 14.5 SSE 11 13 6 7 1010.4 1010.1 0.0
20/04:30pm 34.9 32.7 9.3 21 14.7 SSE 11 17 6 9 1010.3 1010.0 0.0
20/04:00pm 35.2 33.1 9.6 21 14.8 SE 11 17 6 9 1010.1 1009.8 0.0
20/03:30pm 35.3 33.4 8.9 20 15.1 S 9 17 5 9 1010.0 1009.7 0.0
20/03:00pm 35.6 33.4 9.2 20 15.2 SW 11 15 6 8 1010.2 1009.9 0.0
20/02:30pm 35.3 32.4 9.7 21 14.8 SSW 15 20 8 11 1010.4 1010.1 0.0
20/02:00pm 35.1 32.2 9.5 21 14.8 S 15 26 8 14 1010.6 1010.3 0.0
20/01:30pm 35.0 31.7 9.4 21 14.7 SE 17 24 9 13 1010.9 1010.6 0.0
20/01:00pm 35.4 32.5 9.7 21 14.9 SSE 15 22 8 12 1011.5 1011.2 0.0
20/12:30pm 35.2 32.1 10.3 22 14.5 S 17 24 9 13 1012.1 1011.8 0.0
20/12:00pm 34.2 31.2 10.7 24 13.7 S 17 24 9 13 1012.6 1012.3 0.0
20/11:30am 33.9 30.1 9.9 23 13.8 S 20 24 11 13 1013.1 1012.8 0.0
20/11:00am 33.2 30.2 10.5 25 13.2 SSW 17 24 9 13 1013.8 1013.5 0.0
20/10:30am 32.5 29.3 11.1 27 12.5 S 19 24 10 13 1014.4 1014.1 0.0
20/10:00am 30.8 28.1 11.7 31 11.2 S 17 22 9 12 1015.1 1014.7 0.0
20/09:30am 29.5 27.9 11.5 33 10.4 S 11 20 6 11 1015.4 1015.0 0.0
20/09:00am 28.1 26.8 11.2 35 9.7 SW 9 15 5 8 1015.4 1015.0 0.0
20/08:30am 26.7 26.0 12.0 40 8.5 SW 7 9 4 5 1015.4 1015.0 0.0
20/08:00am 25.1 24.9 13.0 47 7.0 W 6 9 3 5 1015.3 1014.9 0.0
20/07:30am 23.3 23.3 13.5 54 5.7 NW 6 9 3 5 1015.1 1014.7 0.0
20/07:00am 20.4 21.6 13.8 66 3.8 CALM 0 0 0 0 1014.9 1014.5 0.0
20/06:30am 16.4 17.0 12.0 75 2.4 CALM 0 0 0 0 1014.7 1014.3 0.0
20/06:00am 15.2 15.5 11.0 76 2.2 CALM 0 0 0 0 1014.4 1014.1 0.0
20/05:30am 15.3 14.1 10.3 72 2.6 ENE 7 7 4 4 1014.0 1013.7 0.0
20/05:00am 16.4 15.8 11.6 73 2.6 ENE 6 7 3 4 1013.8 1013.5 0.0
20/04:30am 16.1 15.0 10.8 71 2.8 NE 7 9 4 5 1013.3 1013.0 0.0
20/04:00am 17.4 16.7 11.9 70 3.0 ENE 7 11 4 6 1013.3 1013.0 0.0
20/03:30am 18.1 16.8 11.4 65 3.7 NNW 9 11 5 6 1012.9 1012.6 0.0
20/03:00am 17.2 15.9 10.1 63 3.8 WNW 7 9 4 5 1012.8 1012.5 0.0
20/02:30am 18.2 17.2 10.3 60 4.2 NW 6 7 3 4 1012.8 1012.5 0.0
20/02:00am 18.4 17.1 10.0 58 4.5 N 7 9 4 5 1012.9 1012.6 0.0
20/01:30am 20.4 19.1 11.3 56 5.0 NW 9 11 5 6 1013.0 1012.7 0.0
20/01:00am 20.5 19.3 10.3 52 5.5 NW 7 9 4 5 1012.8 1012.5 0.0
20/12:30am 22.2 20.6 11.6 51 5.9 SW 11 13 6 7 1012.8 1012.5 0.0
20/12:00am 22.1 20.2 10.6 48 6.3 SW 11 13 6 7 1012.6 1012.3 0.0
 
Date/Time
WST
Temp
°C
App
Temp
°C
Dew
Point
°C
Rel
Hum
%
Delta-T
°C
Wind Press
QNH
hPa
Press
MSL
hPa
Rain since
9am
mm
Dir  Spd
km/h
Gust
km/h
Spd
kts
Gust
kts
19/11:30pm 23.2 20.9 10.6 45 7.0 SW 13 17 7 9 1012.7 1012.4 0.0
19/11:00pm 23.9 21.5 10.2 42 7.6 WSW 13 17 7 9 1012.8 1012.5 0.0
19/10:30pm 24.3 21.9 10.2 41 7.8 WSW 13 17 7 9 1012.8 1012.5 0.0
19/10:00pm 24.6 22.9 11.2 43 7.6 WSW 11 13 6 7 1012.9 1012.6 0.0
19/09:30pm 24.7 23.9 13.0 48 6.8 W 9 11 5 6 1012.8 1012.5 0.0
19/09:00pm 25.5 24.5 13.4 47 7.1 WNW 11 15 6 8 1012.6 1012.3 0.0
19/08:30pm 23.8 23.0 9.8 41 7.7 NW 4 11 2 6 1012.3 1012.0 0.0
19/08:00pm 24.4 24.3 9.6 39 8.1 CALM 0 6 0 3 1012.3 1012.0 0.0
19/07:30pm 25.6 24.2 9.0 35 9.1 NNW 6 7 3 4 1012.0 1011.7 0.0
19/07:00pm 27.3 25.8 9.2 32 10.0 NNW 7 9 4 5 1011.8 1011.5 0.0
19/06:30pm 28.8 27.0 9.5 30 10.8 NW 9 13 5 7 1011.5 1011.2 0.0
19/06:00pm 31.4 29.6 9.6 26 12.4 WSW 9 11 5 6 1011.0 1010.7 0.0
19/05:30pm 33.0 31.3 8.5 22 13.8 W 7 11 4 6 1010.7 1010.4 0.0
19/05:00pm 35.9 34.1 7.9 18 15.8 W 7 11 4 6 1010.4 1010.1 0.0
19/04:30pm 36.4 34.7 7.4 17 16.3 NW 6 11 3 6 1010.1 1009.8 0.0
19/04:00pm 37.1 36.0 7.1 16 16.8 SW 2 7 1 4 1009.8 1009.5 0.0
19/03:30pm 36.9 33.7 7.0 16 16.7 WSW 13 19 7 10 1009.7 1009.4 0.0
19/03:00pm 37.4 35.4 7.3 16 17.0 SSW 7 13 4 7 1009.8 1009.5 0.0
19/02:30pm 36.7 33.9 6.8 16 16.6 S 11 17 6 9 1010.0 1009.7 0.0
19/02:00pm 36.5 34.0 6.6 16 16.6 W 9 15 5 8 1010.3 1010.0 0.0
19/01:30pm 36.5 34.4 6.6 16 16.6 WSW 7 13 4 7 1010.8 1010.5 0.0
19/01:00pm 36.2 34.0 6.4 16 16.5 WSW 7 13 4 7 1011.2 1010.9 0.0
19/12:30pm 36.0 33.8 8.0 18 15.8 S 9 15 5 8 1011.7 1011.4 0.0
19/12:00pm 35.2 32.9 7.3 18 15.5 SSW 9 13 5 7 1012.4 1012.1 0.0
19/11:30am 34.4 33.0 8.9 21 14.5 ESE 6 11 3 6 1012.9 1012.6 0.0
19/11:00am 33.9 32.4 9.2 22 14.1 SSW 7 15 4 8 1013.3 1013.0 0.0
19/10:30am 32.8 31.2 10.2 25 13.0 S 9 15 5 8 1013.8 1013.5 0.0
19/10:00am 30.8 29.2 10.2 28 11.8 SW 9 13 5 7 1014.4 1014.1 0.0
19/09:30am 28.9 27.5 11.0 33 10.3 SW 9 15 5 8 1014.8 1014.4 0.0
19/09:00am 27.7 26.0 11.3 36 9.4 SSW 11 15 6 8 1015.0 1014.6 0.0
19/08:30am 26.6 24.8 10.7 37 9.0 SW 11 17 6 9 1014.9 1014.5 0.0
19/08:00am 24.5 22.6 11.8 45 7.2 WSW 13 15 7 8 1014.5 1014.2 0.0
19/07:30am 23.3 22.3 13.5 54 5.7 SW 11 13 6 7 1014.4 1014.1 0.0
19/07:00am 21.3 22.1 16.3 73 3.0 SW 7 9 4 5 1014.2 1013.9 0.0
19/06:30am 17.3 17.4 14.0 81 1.9 NW 6 7 3 4 1014.0 1013.7 0.0
19/06:00am 15.7 16.0 13.5 87 1.2 NW 4 7 2 4 1013.8 1013.5 0.0
19/05:30am 15.6 15.2 12.5 82 1.7 NW 6 7 3 4 1013.7 1013.4 0.0
19/05:00am 15.3 14.8 12.2 82 1.7 N 6 9 3 5 1013.6 1013.3 0.0
19/04:30am 16.1 16.9 12.7 80 1.9 CALM 0 0 0 0 1013.2 1012.9 0.0
19/04:00am 17.2 16.8 13.1 77 2.3 SW 7 7 4 4 1012.8 1012.5 0.0
19/03:30am 19.5 20.6 14.7 74 2.8 SW 2 6 1 3 1012.7 1012.4 0.0
19/03:00am 20.6 20.1 14.9 70 3.4 SW 11 13 6 7 1012.5 1012.2 0.0
19/02:30am 21.0 20.3 14.2 65 4.0 SW 11 15 6 8 1012.3 1012.0 0.0
19/02:00am 20.1 19.0 12.1 60 4.5 SW 9 11 5 6 1012.5 1012.2 0.0
19/01:30am 20.5 19.1 10.9 54 5.3 SW 9 9 5 5 1012.5 1012.2 0.0
19/01:00am 21.7 20.4 11.4 52 5.7 SW 9 11 5 6 1012.5 1012.2 0.0
19/12:30am 23.2 20.6 11.9 49 6.4 SW 17 20 9 11 1012.6 1012.3 0.0
19/12:00am 21.0 18.8 9.3 47 6.3 SSW 11 15 6 8 1012.7 1012.4 0.0
 
Date/Time
WST
Temp
°C
App
Temp
°C
Dew
Point
°C
Rel
Hum
%
Delta-T
°C
Wind Press
QNH
hPa
Press
MSL
hPa
Rain since
9am
mm
Dir  Spd
km/h
Gust
km/h
Spd
kts
Gust
kts
18/11:30pm 22.2 19.9 9.0 43 7.1 SSW 11 13 6 7 1012.7 1012.4 0.0
18/11:00pm 23.7 22.1 8.6 38 8.1 WSW 7 11 4 6 1012.8 1012.5 0.0
18/10:30pm 24.6 22.7 9.0 37 8.5 W 9 11 5 6 1012.6 1012.3 0.0
18/10:00pm 24.3 21.7 7.9 35 8.7 WNW 11 15 6 8 1012.6 1012.3 0.0
18/09:30pm 23.8 21.6 7.8 36 8.5 S 9 9 5 5 1012.5 1012.2 0.0
18/09:00pm 23.8 22.0 7.8 36 8.5 S 7 9 4 5 1012.5 1012.2 0.0
18/08:30pm 24.2 22.6 8.2 36 8.5 SW 6 7 3 4 1012.5 1012.2 0.0
18/08:00pm 24.6 22.8 8.1 35 8.8 S 7 9 4 5 1012.2 1011.9 0.0
18/07:30pm 25.8 23.4 8.8 34 9.2 SSW 11 13 6 7 1011.8 1011.5 0.0
18/07:00pm 27.1 24.3 8.5 31 10.1 SSW 13 15 7 8 1011.4 1011.1 0.0
18/06:30pm 28.4 25.3 8.7 29 10.8 SW 15 15 8 8 1010.9 1010.6 0.0
18/06:00pm 29.3 26.2 7.2 25 11.9 SW 13 13 7 7 1010.5 1010.2 0.0
18/05:30pm 32.7 30.3 6.8 20 14.1 S 9 9 5 5 1010.2 1009.9 0.0
18/05:00pm 35.6 34.5 5.0 15 16.5 CALM 0 7 0 4 1010.1 1009.8 0.0
18/04:30pm 36.1 33.4 5.4 15 16.7 E 9 11 5 6 1009.7 1009.4 0.0
18/04:00pm 36.5 33.1 5.7 15 16.9 E 13 22 7 12 1009.4 1009.0 0.0
18/03:30pm 36.3 33.2 5.5 15 16.8 NE 11 19 6 10 1009.2 1008.8 0.0
18/03:00pm 36.7 33.1 4.9 14 17.2 S 13 17 7 9 1009.2 1008.8 0.0
18/02:30pm 36.7 34.4 5.9 15 16.9 SE 7 15 4 8 1009.5 1009.1 0.0
18/02:00pm 36.4 33.5 6.6 16 16.5 SSE 11 20 6 11 1009.7 1009.4 0.0
18/01:30pm 35.8 33.0 7.0 17 16.0 SSW 11 20 6 11 1010.1 1009.8 0.0
18/01:00pm 35.1 32.0 5.5 16 16.0 SE 11 15 6 8 1010.6 1010.3 0.0
18/12:30pm 34.9 31.8 7.1 18 15.4 SSE 13 20 7 11 1011.0 1010.7 0.0
18/12:00pm 34.6 32.3 7.6 19 15.1 SSE 9 19 5 10 1011.6 1011.3 0.0
18/11:30am 33.1 30.5 7.9 21 14.0 SSE 11 15 6 8 1012.1 1011.8 0.0
18/11:00am 32.0 29.5 8.3 23 13.2 SSE 11 19 6 10 1012.5 1012.2 0.0
18/10:30am 31.5 28.7 8.5 24 12.8 ESE 13 20 7 11 1013.2 1012.9 0.0
18/10:00am 31.0 27.3 8.1 24 12.6 SE 17 22 9 12 1013.6 1013.3 0.0
18/09:30am 30.0 26.4 8.4 26 11.9 SE 17 24 9 13 1013.7 1013.4 0.0
18/09:00am 28.5 24.2 7.7 27 11.3 ESE 20 32 11 17 1013.5 1013.2 0.0

Other Formats:

Comma delimited format used in spreadsheet applications
http://www.bom.gov.au/fwo/IDW60801/IDW60801.94204.axf

JavaScript Object Notation format (JSON) in row-major order
http://www.bom.gov.au/fwo/IDW60801/IDW60801.94204.json